sensor_id;sensor_type;location;lat;lon;timestamp;temperature;humidity
21582;DHT22;10952;50.836;4.348;2023-02-22T00:01:33;7.40;99.90
21582;DHT22;10952;50.836;4.348;2023-02-22T00:04:01;7.50;99.90
21582;DHT22;10952;50.836;4.348;2023-02-22T00:06:27;7.60;99.90
21582;DHT22;10952;50.836;4.348;2023-02-22T00:08:53;7.70;99.90
21582;DHT22;10952;50.836;4.348;2023-02-22T00:11:20;7.70;99.90
21582;DHT22;10952;50.836;4.348;2023-02-22T00:13:46;7.70;99.90
21582;DHT22;10952;50.836;4.348;2023-02-22T00:16:18;7.80;99.90
21582;DHT22;10952;50.836;4.348;2023-02-22T00:18:47;7.80;99.90
21582;DHT22;10952;50.836;4.348;2023-02-22T00:21:14;7.80;99.90
21582;DHT22;10952;50.836;4.348;2023-02-22T00:23:43;7.90;99.90
21582;DHT22;10952;50.836;4.348;2023-02-22T00:26:18;8.00;99.90
21582;DHT22;10952;50.836;4.348;2023-02-22T00:28:49;7.90;99.90
21582;DHT22;10952;50.836;4.348;2023-02-22T00:31:15;8.00;99.90
21582;DHT22;10952;50.836;4.348;2023-02-22T00:33:41;7.90;99.90
21582;DHT22;10952;50.836;4.348;2023-02-22T00:36:08;7.80;99.90
21582;DHT22;10952;50.836;4.348;2023-02-22T00:38:34;7.60;99.90
21582;DHT22;10952;50.836;4.348;2023-02-22T00:41:00;7.40;99.90
21582;DHT22;10952;50.836;4.348;2023-02-22T00:43:25;7.40;99.90
21582;DHT22;10952;50.836;4.348;2023-02-22T00:45:51;7.40;99.90
21582;DHT22;10952;50.836;4.348;2023-02-22T00:48:18;7.30;99.90
21582;DHT22;10952;50.836;4.348;2023-02-22T00:50:44;7.30;99.90
21582;DHT22;10952;50.836;4.348;2023-02-22T00:53:13;7.30;99.90
21582;DHT22;10952;50.836;4.348;2023-02-22T00:55:39;7.50;99.90
21582;DHT22;10952;50.836;4.348;2023-02-22T00:58:05;7.80;99.90
21582;DHT22;10952;50.836;4.348;2023-02-22T01:00:34;7.70;99.90
21582;DHT22;10952;50.836;4.348;2023-02-22T01:03:02;7.50;99.90
21582;DHT22;10952;50.836;4.348;2023-02-22T01:05:29;7.30;99.90
21582;DHT22;10952;50.836;4.348;2023-02-22T01:07:57;7.20;99.90
21582;DHT22;10952;50.836;4.348;2023-02-22T01:10:24;7.30;99.90
21582;DHT22;10952;50.836;4.348;2023-02-22T01:12:50;7.20;99.90
21582;DHT22;10952;50.836;4.348;2023-02-22T01:15:19;7.20;99.90
21582;DHT22;10952;50.836;4.348;2023-02-22T01:17:50;7.40;99.90
21582;DHT22;10952;50.836;4.348;2023-02-22T01:20:16;7.50;99.90
21582;DHT22;10952;50.836;4.348;2023-02-22T01:22:45;7.50;99.90
21582;DHT22;10952;50.836;4.348;2023-02-22T01:25:14;7.40;99.90
21582;DHT22;10952;50.836;4.348;2023-02-22T01:27:39;7.40;99.90
21582;DHT22;10952;50.836;4.348;2023-02-22T01:30:06;7.50;99.90
21582;DHT22;10952;50.836;4.348;2023-02-22T01:32:37;7.40;99.90
21582;DHT22;10952;50.836;4.348;2023-02-22T01:35:08;7.30;99.90
21582;DHT22;10952;50.836;4.348;2023-02-22T01:37:35;7.40;99.90
21582;DHT22;10952;50.836;4.348;2023-02-22T01:40:02;7.50;99.90
21582;DHT22;10952;50.836;4.348;2023-02-22T01:42:28;7.60;99.90
21582;DHT22;10952;50.836;4.348;2023-02-22T01:51:10;7.40;99.90
21582;DHT22;10952;50.836;4.348;2023-02-22T01:53:43;7.20;99.90
21582;DHT22;10952;50.836;4.348;2023-02-22T01:56:10;7.10;99.90
21582;DHT22;10952;50.836;4.348;2023-02-22T01:58:38;6.90;99.90
21582;DHT22;10952;50.836;4.348;2023-02-22T02:01:06;6.90;99.90
21582;DHT22;10952;50.836;4.348;2023-02-22T02:03:35;6.90;99.90
21582;DHT22;10952;50.836;4.348;2023-02-22T02:06:05;6.80;99.90
21582;DHT22;10952;50.836;4.348;2023-02-22T02:08:44;6.80;99.90
21582;DHT22;10952;50.836;4.348;2023-02-22T02:11:19;6.80;99.90
21582;DHT22;10952;50.836;4.348;2023-02-22T02:13:48;7.00;99.90
21582;DHT22;10952;50.836;4.348;2023-02-22T02:16:14;7.30;99.90
21582;DHT22;10952;50.836;4.348;2023-02-22T02:18:40;7.30;99.90
21582;DHT22;10952;50.836;4.348;2023-02-22T02:21:40;7.30;99.90
21582;DHT22;10952;50.836;4.348;2023-02-22T02:27:39;7.30;99.90
21582;DHT22;10952;50.836;4.348;2023-02-22T02:33:01;7.50;99.90
21582;DHT22;10952;50.836;4.348;2023-02-22T02:35:49;7.50;99.90
21582;DHT22;10952;50.836;4.348;2023-02-22T02:38:21;7.50;99.90
21582;DHT22;10952;50.836;4.348;2023-02-22T02:41:04;7.40;99.90
21582;DHT22;10952;50.836;4.348;2023-02-22T02:43:44;7.40;99.90
21582;DHT22;10952;50.836;4.348;2023-02-22T02:48:48;7.40;99.90
21582;DHT22;10952;50.836;4.348;2023-02-22T02:51:16;7.50;99.90
21582;DHT22;10952;50.836;4.348;2023-02-22T02:53:45;7.50;99.90
21582;DHT22;10952;50.836;4.348;2023-02-22T02:56:12;7.70;99.90
21582;DHT22;10952;50.836;4.348;2023-02-22T02:58:47;7.60;99.90
21582;DHT22;10952;50.836;4.348;2023-02-22T03:18:27;7.60;99.90
21582;DHT22;10952;50.836;4.348;2023-02-22T03:21:25;7.60;99.90
21582;DHT22;10952;50.836;4.348;2023-02-22T03:24:07;7.60;99.90
21582;DHT22;10952;50.836;4.348;2023-02-22T03:26:41;7.50;99.90
21582;DHT22;10952;50.836;4.348;2023-02-22T03:29:11;7.60;99.90
21582;DHT22;10952;50.836;4.348;2023-02-22T03:31:42;7.60;99.90
21582;DHT22;10952;50.836;4.348;2023-02-22T03:34:18;7.50;99.90
21582;DHT22;10952;50.836;4.348;2023-02-22T03:36:49;7.40;99.90
21582;DHT22;10952;50.836;4.348;2023-02-22T03:39:17;7.30;99.90
21582;DHT22;10952;50.836;4.348;2023-02-22T03:41:47;7.00;99.90
21582;DHT22;10952;50.836;4.348;2023-02-22T03:44:19;6.80;99.90
21582;DHT22;10952;50.836;4.348;2023-02-22T03:46:49;6.60;99.90
21582;DHT22;10952;50.836;4.348;2023-02-22T03:49:26;6.60;99.90
21582;DHT22;10952;50.836;4.348;2023-02-22T03:51:54;6.60;99.90
21582;DHT22;10952;50.836;4.348;2023-02-22T03:54:20;6.60;99.90
21582;DHT22;10952;50.836;4.348;2023-02-22T03:57:03;6.60;99.90
21582;DHT22;10952;50.836;4.348;2023-02-22T03:59:31;6.70;99.90
21582;DHT22;10952;50.836;4.348;2023-02-22T04:01:57;6.90;99.90
21582;DHT22;10952;50.836;4.348;2023-02-22T04:04:24;6.80;99.90
21582;DHT22;10952;50.836;4.348;2023-02-22T04:06:52;6.80;99.90
21582;DHT22;10952;50.836;4.348;2023-02-22T04:09:18;6.80;99.90
21582;DHT22;10952;50.836;4.348;2023-02-22T04:11:44;6.90;99.90
21582;DHT22;10952;50.836;4.348;2023-02-22T04:14:10;6.90;99.90
21582;DHT22;10952;50.836;4.348;2023-02-22T04:16:36;6.90;99.90
21582;DHT22;10952;50.836;4.348;2023-02-22T04:19:02;7.00;99.90
21582;DHT22;10952;50.836;4.348;2023-02-22T04:21:27;7.00;99.90
21582;DHT22;10952;50.836;4.348;2023-02-22T04:23:53;7.10;99.90
21582;DHT22;10952;50.836;4.348;2023-02-22T04:26:18;7.00;99.90
21582;DHT22;10952;50.836;4.348;2023-02-22T04:28:44;7.10;99.90
21582;DHT22;10952;50.836;4.348;2023-02-22T04:31:10;7.30;99.90
21582;DHT22;10952;50.836;4.348;2023-02-22T04:33:36;7.30;99.90
21582;DHT22;10952;50.836;4.348;2023-02-22T04:36:01;7.40;99.90
21582;DHT22;10952;50.836;4.348;2023-02-22T04:38:27;7.60;99.90
21582;DHT22;10952;50.836;4.348;2023-02-22T04:40:53;7.60;99.90
21582;DHT22;10952;50.836;4.348;2023-02-22T04:43:19;7.60;99.90
21582;DHT22;10952;50.836;4.348;2023-02-22T04:45:45;7.60;99.90
21582;DHT22;10952;50.836;4.348;2023-02-22T04:48:11;7.60;99.90
21582;DHT22;10952;50.836;4.348;2023-02-22T04:50:37;7.60;99.90
21582;DHT22;10952;50.836;4.348;2023-02-22T04:53:04;7.70;99.90
21582;DHT22;10952;50.836;4.348;2023-02-22T04:55:29;7.90;99.90
21582;DHT22;10952;50.836;4.348;2023-02-22T04:57:55;7.90;99.90
21582;DHT22;10952;50.836;4.348;2023-02-22T05:00:22;7.80;99.90
21582;DHT22;10952;50.836;4.348;2023-02-22T05:02:49;7.80;99.90
21582;DHT22;10952;50.836;4.348;2023-02-22T05:05:17;7.90;99.90
21582;DHT22;10952;50.836;4.348;2023-02-22T05:07:43;7.90;99.90
21582;DHT22;10952;50.836;4.348;2023-02-22T05:10:10;7.80;99.90
21582;DHT22;10952;50.836;4.348;2023-02-22T05:12:36;7.70;99.90
21582;DHT22;10952;50.836;4.348;2023-02-22T05:15:03;7.70;99.90
21582;DHT22;10952;50.836;4.348;2023-02-22T05:17:29;7.60;99.90
21582;DHT22;10952;50.836;4.348;2023-02-22T05:19:54;7.60;99.90
21582;DHT22;10952;50.836;4.348;2023-02-22T05:22:20;7.70;99.90
21582;DHT22;10952;50.836;4.348;2023-02-22T05:24:45;7.70;99.90
21582;DHT22;10952;50.836;4.348;2023-02-22T05:27:11;7.80;99.90
21582;DHT22;10952;50.836;4.348;2023-02-22T05:29:37;7.90;99.90
21582;DHT22;10952;50.836;4.348;2023-02-22T05:32:04;7.90;99.90
21582;DHT22;10952;50.836;4.348;2023-02-22T05:34:31;7.90;99.90
21582;DHT22;10952;50.836;4.348;2023-02-22T05:36:57;7.80;99.90
21582;DHT22;10952;50.836;4.348;2023-02-22T05:39:22;7.70;99.90
21582;DHT22;10952;50.836;4.348;2023-02-22T05:41:48;7.70;99.90
21582;DHT22;10952;50.836;4.348;2023-02-22T05:44:14;7.80;99.90
21582;DHT22;10952;50.836;4.348;2023-02-22T05:46:40;7.90;99.90
21582;DHT22;10952;50.836;4.348;2023-02-22T05:49:05;8.10;99.90
21582;DHT22;10952;50.836;4.348;2023-02-22T05:51:31;8.20;99.90
21582;DHT22;10952;50.836;4.348;2023-02-22T05:53:58;8.10;99.90
21582;DHT22;10952;50.836;4.348;2023-02-22T05:56:25;8.20;99.90
21582;DHT22;10952;50.836;4.348;2023-02-22T05:58:51;8.20;99.90
21582;DHT22;10952;50.836;4.348;2023-02-22T06:01:17;8.20;99.90
21582;DHT22;10952;50.836;4.348;2023-02-22T06:03:45;8.20;99.90
21582;DHT22;10952;50.836;4.348;2023-02-22T06:06:11;8.20;99.90
21582;DHT22;10952;50.836;4.348;2023-02-22T06:08:37;8.20;99.90
21582;DHT22;10952;50.836;4.348;2023-02-22T06:11:02;8.20;99.90
21582;DHT22;10952;50.836;4.348;2023-02-22T06:13:28;8.10;99.90
21582;DHT22;10952;50.836;4.348;2023-02-22T06:15:54;8.20;99.90
21582;DHT22;10952;50.836;4.348;2023-02-22T06:18:19;8.30;99.90
21582;DHT22;10952;50.836;4.348;2023-02-22T06:20:45;8.40;99.90
21582;DHT22;10952;50.836;4.348;2023-02-22T06:23:11;8.40;99.90
21582;DHT22;10952;50.836;4.348;2023-02-22T06:25:36;8.50;99.90
21582;DHT22;10952;50.836;4.348;2023-02-22T06:28:03;8.40;99.90
21582;DHT22;10952;50.836;4.348;2023-02-22T06:30:29;8.50;99.90
21582;DHT22;10952;50.836;4.348;2023-02-22T06:32:55;8.50;99.90
21582;DHT22;10952;50.836;4.348;2023-02-22T06:35:21;8.40;99.90
21582;DHT22;10952;50.836;4.348;2023-02-22T06:37:47;8.20;99.90
21582;DHT22;10952;50.836;4.348;2023-02-22T06:40:13;8.10;99.90
21582;DHT22;10952;50.836;4.348;2023-02-22T06:42:39;8.00;99.90
21582;DHT22;10952;50.836;4.348;2023-02-22T06:45:06;8.10;99.90
21582;DHT22;10952;50.836;4.348;2023-02-22T06:47:31;8.10;99.90
21582;DHT22;10952;50.836;4.348;2023-02-22T06:49:58;8.10;99.90
21582;DHT22;10952;50.836;4.348;2023-02-22T06:52:23;8.00;99.90
21582;DHT22;10952;50.836;4.348;2023-02-22T06:54:49;8.10;99.90
21582;DHT22;10952;50.836;4.348;2023-02-22T06:57:15;8.20;99.90
21582;DHT22;10952;50.836;4.348;2023-02-22T06:59:41;8.40;99.90
21582;DHT22;10952;50.836;4.348;2023-02-22T07:02:09;8.50;99.90
21582;DHT22;10952;50.836;4.348;2023-02-22T07:04:35;8.50;99.90
21582;DHT22;10952;50.836;4.348;2023-02-22T07:07:00;8.50;99.90
21582;DHT22;10952;50.836;4.348;2023-02-22T07:09:26;8.50;99.90
21582;DHT22;10952;50.836;4.348;2023-02-22T07:11:52;8.60;99.90
21582;DHT22;10952;50.836;4.348;2023-02-22T07:14:17;8.60;99.90
21582;DHT22;10952;50.836;4.348;2023-02-22T07:16:43;8.70;99.90
21582;DHT22;10952;50.836;4.348;2023-02-22T07:19:08;8.70;99.90
21582;DHT22;10952;50.836;4.348;2023-02-22T07:21:34;8.80;99.90
21582;DHT22;10952;50.836;4.348;2023-02-22T07:24:00;8.80;99.90
21582;DHT22;10952;50.836;4.348;2023-02-22T07:26:26;8.80;99.90
21582;DHT22;10952;50.836;4.348;2023-02-22T07:28:51;8.80;99.90
21582;DHT22;10952;50.836;4.348;2023-02-22T07:31:17;8.90;99.90
21582;DHT22;10952;50.836;4.348;2023-02-22T07:33:45;8.90;99.90
21582;DHT22;10952;50.836;4.348;2023-02-22T07:36:11;9.00;99.90
21582;DHT22;10952;50.836;4.348;2023-02-22T07:38:39;9.10;99.90
21582;DHT22;10952;50.836;4.348;2023-02-22T07:41:05;9.20;99.90
21582;DHT22;10952;50.836;4.348;2023-02-22T07:43:31;9.30;99.90
21582;DHT22;10952;50.836;4.348;2023-02-22T07:45:58;9.40;99.90
21582;DHT22;10952;50.836;4.348;2023-02-22T07:48:26;9.60;99.90
21582;DHT22;10952;50.836;4.348;2023-02-22T07:50:52;9.60;99.90
21582;DHT22;10952;50.836;4.348;2023-02-22T07:53:21;9.70;99.90
21582;DHT22;10952;50.836;4.348;2023-02-22T07:55:48;9.80;99.90
21582;DHT22;10952;50.836;4.348;2023-02-22T07:58:20;9.90;99.90
21582;DHT22;10952;50.836;4.348;2023-02-22T08:00:46;10.00;99.90
21582;DHT22;10952;50.836;4.348;2023-02-22T08:03:16;10.30;99.90
21582;DHT22;10952;50.836;4.348;2023-02-22T08:05:47;10.40;99.90
21582;DHT22;10952;50.836;4.348;2023-02-22T08:08:14;10.50;99.90
21582;DHT22;10952;50.836;4.348;2023-02-22T08:10:40;10.50;99.90
21582;DHT22;10952;50.836;4.348;2023-02-22T08:13:06;10.60;99.90
21582;DHT22;10952;50.836;4.348;2023-02-22T08:15:35;10.60;99.90
21582;DHT22;10952;50.836;4.348;2023-02-22T08:18:05;10.70;99.90
21582;DHT22;10952;50.836;4.348;2023-02-22T08:20:33;10.80;99.90
21582;DHT22;10952;50.836;4.348;2023-02-22T08:22:59;10.90;99.90
21582;DHT22;10952;50.836;4.348;2023-02-22T08:25:27;10.90;99.90
21582;DHT22;10952;50.836;4.348;2023-02-22T08:28:00;11.00;99.90
21582;DHT22;10952;50.836;4.348;2023-02-22T08:30:28;11.00;99.90
21582;DHT22;10952;50.836;4.348;2023-02-22T08:32:54;11.10;99.90
21582;DHT22;10952;50.836;4.348;2023-02-22T08:35:21;11.10;99.90
21582;DHT22;10952;50.836;4.348;2023-02-22T08:37:53;11.20;99.90
21582;DHT22;10952;50.836;4.348;2023-02-22T08:40:21;11.30;99.90
21582;DHT22;10952;50.836;4.348;2023-02-22T08:42:47;11.40;99.90
21582;DHT22;10952;50.836;4.348;2023-02-22T08:45:13;11.50;99.90
21582;DHT22;10952;50.836;4.348;2023-02-22T08:47:39;11.60;99.90
21582;DHT22;10952;50.836;4.348;2023-02-22T08:50:06;11.60;99.90
21582;DHT22;10952;50.836;4.348;2023-02-22T08:52:32;11.50;99.90
21582;DHT22;10952;50.836;4.348;2023-02-22T08:54:57;11.50;99.90
21582;DHT22;10952;50.836;4.348;2023-02-22T08:57:23;11.50;99.90
21582;DHT22;10952;50.836;4.348;2023-02-22T08:59:48;11.40;99.90
21582;DHT22;10952;50.836;4.348;2023-02-22T09:02:16;11.40;99.90
21582;DHT22;10952;50.836;4.348;2023-02-22T09:04:42;11.20;99.90
21582;DHT22;10952;50.836;4.348;2023-02-22T09:07:08;11.10;99.90
21582;DHT22;10952;50.836;4.348;2023-02-22T09:09:34;11.10;99.90
21582;DHT22;10952;50.836;4.348;2023-02-22T09:12:00;11.10;99.90
21582;DHT22;10952;50.836;4.348;2023-02-22T09:14:25;11.20;99.90
21582;DHT22;10952;50.836;4.348;2023-02-22T09:16:51;11.20;99.90
21582;DHT22;10952;50.836;4.348;2023-02-22T09:19:17;11.20;99.90
21582;DHT22;10952;50.836;4.348;2023-02-22T09:21:42;11.30;99.90
21582;DHT22;10952;50.836;4.348;2023-02-22T09:24:08;11.50;99.90
21582;DHT22;10952;50.836;4.348;2023-02-22T09:26:37;11.50;99.90
21582;DHT22;10952;50.836;4.348;2023-02-22T09:29:08;11.50;99.90
21582;DHT22;10952;50.836;4.348;2023-02-22T09:31:37;11.40;99.90
21582;DHT22;10952;50.836;4.348;2023-02-22T09:34:07;11.50;99.90
21582;DHT22;10952;50.836;4.348;2023-02-22T09:36:43;11.50;99.90
21582;DHT22;10952;50.836;4.348;2023-02-22T09:39:11;11.60;99.90
21582;DHT22;10952;50.836;4.348;2023-02-22T09:44:41;11.50;99.90
21582;DHT22;10952;50.836;4.348;2023-02-22T09:47:40;11.40;99.90
21582;DHT22;10952;50.836;4.348;2023-02-22T09:50:13;11.40;99.90
21582;DHT22;10952;50.836;4.348;2023-02-22T09:52:53;11.40;99.90
21582;DHT22;10952;50.836;4.348;2023-02-22T09:55:50;11.50;99.90
21582;DHT22;10952;50.836;4.348;2023-02-22T09:58:32;11.60;99.90
21582;DHT22;10952;50.836;4.348;2023-02-22T10:01:31;11.60;99.90
21582;DHT22;10952;50.836;4.348;2023-02-22T10:06:55;11.80;99.90
21582;DHT22;10952;50.836;4.348;2023-02-22T10:09:27;11.80;99.90
21582;DHT22;10952;50.836;4.348;2023-02-22T10:21:04;12.20;99.90
21582;DHT22;10952;50.836;4.348;2023-02-22T10:26:27;12.40;99.90
21582;DHT22;10952;50.836;4.348;2023-02-22T10:31:40;12.60;99.90
21582;DHT22;10952;50.836;4.348;2023-02-22T10:34:16;12.80;99.90
21582;DHT22;10952;50.836;4.348;2023-02-22T10:36:47;12.90;99.90
21582;DHT22;10952;50.836;4.348;2023-02-22T10:39:24;13.00;99.90
21582;DHT22;10952;50.836;4.348;2023-02-22T10:41:55;13.10;99.90
21582;DHT22;10952;50.836;4.348;2023-02-22T10:44:21;13.00;99.90
21582;DHT22;10952;50.836;4.348;2023-02-22T10:46:47;13.00;99.90
21582;DHT22;10952;50.836;4.348;2023-02-22T10:49:19;12.90;99.90
21582;DHT22;10952;50.836;4.348;2023-02-22T10:51:51;12.90;99.90
21582;DHT22;10952;50.836;4.348;2023-02-22T10:54:25;13.00;99.90
21582;DHT22;10952;50.836;4.348;2023-02-22T10:56:54;13.00;99.90
21582;DHT22;10952;50.836;4.348;2023-02-22T10:59:38;12.90;99.90
21582;DHT22;10952;50.836;4.348;2023-02-22T11:02:33;13.10;99.90
21582;DHT22;10952;50.836;4.348;2023-02-22T11:05:02;12.90;99.90
21582;DHT22;10952;50.836;4.348;2023-02-22T11:07:35;12.90;99.90
21582;DHT22;10952;50.836;4.348;2023-02-22T11:14:54;12.90;99.90
21582;DHT22;10952;50.836;4.348;2023-02-22T11:17:28;12.90;99.90
21582;DHT22;10952;50.836;4.348;2023-02-22T11:19:54;13.10;99.90
21582;DHT22;10952;50.836;4.348;2023-02-22T11:22:27;13.10;99.90
21582;DHT22;10952;50.836;4.348;2023-02-22T11:24:58;13.00;99.90
21582;DHT22;10952;50.836;4.348;2023-02-22T11:27:29;12.90;99.90
21582;DHT22;10952;50.836;4.348;2023-02-22T11:30:29;12.90;99.90
21582;DHT22;10952;50.836;4.348;2023-02-22T11:33:20;12.80;99.90
21582;DHT22;10952;50.836;4.348;2023-02-22T11:35:58;12.70;99.90
21582;DHT22;10952;50.836;4.348;2023-02-22T11:38:27;12.80;99.90
21582;DHT22;10952;50.836;4.348;2023-02-22T11:41:17;13.00;99.90
21582;DHT22;10952;50.836;4.348;2023-02-22T11:43:48;13.00;99.90
21582;DHT22;10952;50.836;4.348;2023-02-22T11:46:23;13.00;99.90
21582;DHT22;10952;50.836;4.348;2023-02-22T11:49:08;13.30;99.90
21582;DHT22;10952;50.836;4.348;2023-02-22T12:00:17;13.70;99.90
21582;DHT22;10952;50.836;4.348;2023-02-22T12:03:03;13.60;99.90
21582;DHT22;10952;50.836;4.348;2023-02-22T12:14:29;14.20;99.90
21582;DHT22;10952;50.836;4.348;2023-02-22T12:17:15;14.20;99.90
21582;DHT22;10952;50.836;4.348;2023-02-22T12:20:18;14.30;99.90
21582;DHT22;10952;50.836;4.348;2023-02-22T12:22:51;14.30;99.90
21582;DHT22;10952;50.836;4.348;2023-02-22T12:25:26;14.20;99.90
21582;DHT22;10952;50.836;4.348;2023-02-22T12:33:56;13.70;99.90
21582;DHT22;10952;50.836;4.348;2023-02-22T12:36:32;13.60;99.90
21582;DHT22;10952;50.836;4.348;2023-02-22T12:39:04;13.40;99.90
21582;DHT22;10952;50.836;4.348;2023-02-22T12:41:43;13.40;99.90
21582;DHT22;10952;50.836;4.348;2023-02-22T12:44:18;13.40;99.90
21582;DHT22;10952;50.836;4.348;2023-02-22T12:46:48;13.40;99.90
21582;DHT22;10952;50.836;4.348;2023-02-22T12:57:24;13.30;99.90
21582;DHT22;10952;50.836;4.348;2023-02-22T12:59:56;13.30;99.90
21582;DHT22;10952;50.836;4.348;2023-02-22T13:02:34;13.40;99.90
21582;DHT22;10952;50.836;4.348;2023-02-22T13:05:01;13.50;99.90
21582;DHT22;10952;50.836;4.348;2023-02-22T13:08:30;13.40;99.90
21582;DHT22;10952;50.836;4.348;2023-02-22T13:13:50;13.70;99.90
21582;DHT22;10952;50.836;4.348;2023-02-22T13:25:09;13.40;99.90
21582;DHT22;10952;50.836;4.348;2023-02-22T13:30:22;13.20;99.90
21582;DHT22;10952;50.836;4.348;2023-02-22T13:33:29;13.20;99.90
21582;DHT22;10952;50.836;4.348;2023-02-22T13:45:05;13.10;99.90
21582;DHT22;10952;50.836;4.348;2023-02-22T13:50:40;13.00;99.90
21582;DHT22;10952;50.836;4.348;2023-02-22T13:53:14;12.90;99.90
21582;DHT22;10952;50.836;4.348;2023-02-22T13:55:46;12.90;99.90
21582;DHT22;10952;50.836;4.348;2023-02-22T13:58:14;12.90;99.90
21582;DHT22;10952;50.836;4.348;2023-02-22T14:13:21;12.70;99.90
21582;DHT22;10952;50.836;4.348;2023-02-22T14:19:01;12.70;99.90
21582;DHT22;10952;50.836;4.348;2023-02-22T14:21:31;12.70;99.90
21582;DHT22;10952;50.836;4.348;2023-02-22T14:24:08;12.70;99.90
21582;DHT22;10952;50.836;4.348;2023-02-22T14:26:39;12.70;99.90
21582;DHT22;10952;50.836;4.348;2023-02-22T14:34:37;12.10;99.90
21582;DHT22;10952;50.836;4.348;2023-02-22T14:37:00;12.20;99.90
21582;DHT22;10952;50.836;4.348;2023-02-22T14:42:30;12.20;99.90
21582;DHT22;10952;50.836;4.348;2023-02-22T14:47:57;11.80;99.90
21582;DHT22;10952;50.836;4.348;2023-02-22T14:50:52;11.80;99.90
21582;DHT22;10952;50.836;4.348;2023-02-22T14:58:24;11.60;99.90
21582;DHT22;10952;50.836;4.348;2023-02-22T15:00:52;11.60;99.90
21582;DHT22;10952;50.836;4.348;2023-02-22T15:03:34;11.60;99.90
21582;DHT22;10952;50.836;4.348;2023-02-22T15:06:11;11.80;99.90
21582;DHT22;10952;50.836;4.348;2023-02-22T15:08:40;11.80;99.90
21582;DHT22;10952;50.836;4.348;2023-02-22T15:11:25;11.80;99.90
21582;DHT22;10952;50.836;4.348;2023-02-22T15:13:55;11.80;99.90
21582;DHT22;10952;50.836;4.348;2023-02-22T15:16:23;11.70;99.90
21582;DHT22;10952;50.836;4.348;2023-02-22T15:18:56;11.70;99.90
21582;DHT22;10952;50.836;4.348;2023-02-22T15:21:27;11.70;99.90
21582;DHT22;10952;50.836;4.348;2023-02-22T15:24:07;11.70;99.90
21582;DHT22;10952;50.836;4.348;2023-02-22T15:26:42;11.70;99.90
21582;DHT22;10952;50.836;4.348;2023-02-22T15:31:44;11.40;99.90
21582;DHT22;10952;50.836;4.348;2023-02-22T15:36:44;11.30;99.90
21582;DHT22;10952;50.836;4.348;2023-02-22T15:39:22;11.20;99.90
21582;DHT22;10952;50.836;4.348;2023-02-22T15:42:04;11.20;99.90
21582;DHT22;10952;50.836;4.348;2023-02-22T15:44:39;11.30;99.90
21582;DHT22;10952;50.836;4.348;2023-02-22T15:47:06;11.30;99.90
21582;DHT22;10952;50.836;4.348;2023-02-22T15:49:32;11.30;99.90
21582;DHT22;10952;50.836;4.348;2023-02-22T15:52:06;11.20;99.90
21582;DHT22;10952;50.836;4.348;2023-02-22T15:54:41;11.30;99.90
21582;DHT22;10952;50.836;4.348;2023-02-22T15:57:09;11.30;99.90
21582;DHT22;10952;50.836;4.348;2023-02-22T15:59:42;11.40;99.90
21582;DHT22;10952;50.836;4.348;2023-02-22T16:05:01;11.20;99.90
21582;DHT22;10952;50.836;4.348;2023-02-22T16:07:28;11.20;99.90
21582;DHT22;10952;50.836;4.348;2023-02-22T16:09:54;11.30;99.90
21582;DHT22;10952;50.836;4.348;2023-02-22T16:14:47;11.10;99.90
21582;DHT22;10952;50.836;4.348;2023-02-22T16:22:39;11.00;99.90
21582;DHT22;10952;50.836;4.348;2023-02-22T16:27:46;11.10;99.90
21582;DHT22;10952;50.836;4.348;2023-02-22T16:32:47;11.00;99.90
21582;DHT22;10952;50.836;4.348;2023-02-22T16:35:14;11.00;99.90
21582;DHT22;10952;50.836;4.348;2023-02-22T16:37:50;10.90;99.90
21582;DHT22;10952;50.836;4.348;2023-02-22T16:40:25;10.90;99.90
21582;DHT22;10952;50.836;4.348;2023-02-22T16:42:52;10.90;99.90
21582;DHT22;10952;50.836;4.348;2023-02-22T16:45:19;11.00;99.90
21582;DHT22;10952;50.836;4.348;2023-02-22T16:47:46;11.00;99.90
21582;DHT22;10952;50.836;4.348;2023-02-22T16:50:13;11.10;99.90
21582;DHT22;10952;50.836;4.348;2023-02-22T16:52:42;11.10;99.90
21582;DHT22;10952;50.836;4.348;2023-02-22T16:55:10;11.00;99.90
21582;DHT22;10952;50.836;4.348;2023-02-22T16:57:38;11.00;99.90
21582;DHT22;10952;50.836;4.348;2023-02-22T17:00:12;11.00;99.90
21582;DHT22;10952;50.836;4.348;2023-02-22T17:02:39;10.90;99.90
21582;DHT22;10952;50.836;4.348;2023-02-22T17:05:05;11.00;99.90
21582;DHT22;10952;50.836;4.348;2023-02-22T17:07:32;11.00;99.90
21582;DHT22;10952;50.836;4.348;2023-02-22T17:09:58;11.10;99.90
21582;DHT22;10952;50.836;4.348;2023-02-22T17:12:28;11.10;99.90
21582;DHT22;10952;50.836;4.348;2023-02-22T17:14:54;11.10;99.90
21582;DHT22;10952;50.836;4.348;2023-02-22T17:17:20;11.10;99.90
21582;DHT22;10952;50.836;4.348;2023-02-22T17:19:46;11.10;99.90
21582;DHT22;10952;50.836;4.348;2023-02-22T17:22:21;11.00;99.90
21582;DHT22;10952;50.836;4.348;2023-02-22T17:24:47;11.00;99.90
21582;DHT22;10952;50.836;4.348;2023-02-22T17:27:13;10.90;99.90
21582;DHT22;10952;50.836;4.348;2023-02-22T17:29:39;10.90;99.90
21582;DHT22;10952;50.836;4.348;2023-02-22T17:32:05;11.00;99.90
21582;DHT22;10952;50.836;4.348;2023-02-22T17:34:31;10.90;99.90
21582;DHT22;10952;50.836;4.348;2023-02-22T17:36:57;10.90;99.90
21582;DHT22;10952;50.836;4.348;2023-02-22T17:39:23;11.00;99.90
21582;DHT22;10952;50.836;4.348;2023-02-22T17:41:48;11.10;99.90
21582;DHT22;10952;50.836;4.348;2023-02-22T17:44:21;11.10;99.90
21582;DHT22;10952;50.836;4.348;2023-02-22T17:46:47;11.10;99.90
21582;DHT22;10952;50.836;4.348;2023-02-22T17:49:12;11.00;99.90
21582;DHT22;10952;50.836;4.348;2023-02-22T17:51:39;11.10;99.90
21582;DHT22;10952;50.836;4.348;2023-02-22T17:54:05;11.10;99.90
21582;DHT22;10952;50.836;4.348;2023-02-22T17:56:31;11.10;99.90
21582;DHT22;10952;50.836;4.348;2023-02-22T17:58:57;11.10;99.90
21582;DHT22;10952;50.836;4.348;2023-02-22T18:01:30;11.10;99.90
21582;DHT22;10952;50.836;4.348;2023-02-22T18:03:59;11.30;99.90
21582;DHT22;10952;50.836;4.348;2023-02-22T18:06:26;11.30;99.90
21582;DHT22;10952;50.836;4.348;2023-02-22T18:08:54;11.30;99.90
21582;DHT22;10952;50.836;4.348;2023-02-22T18:11:21;11.40;99.90
21582;DHT22;10952;50.836;4.348;2023-02-22T18:13:54;11.30;99.90
21582;DHT22;10952;50.836;4.348;2023-02-22T18:16:19;11.20;99.90
21582;DHT22;10952;50.836;4.348;2023-02-22T18:18:45;11.20;99.90
21582;DHT22;10952;50.836;4.348;2023-02-22T18:21:12;11.10;99.90
21582;DHT22;10952;50.836;4.348;2023-02-22T18:23:39;11.20;99.90
21582;DHT22;10952;50.836;4.348;2023-02-22T18:26:05;11.10;99.90
21582;DHT22;10952;50.836;4.348;2023-02-22T18:28:31;11.10;99.90
21582;DHT22;10952;50.836;4.348;2023-02-22T18:30:57;11.20;99.90
21582;DHT22;10952;50.836;4.348;2023-02-22T18:33:25;11.20;99.90
21582;DHT22;10952;50.836;4.348;2023-02-22T18:35:51;11.20;99.90
21582;DHT22;10952;50.836;4.348;2023-02-22T18:38:18;11.20;99.90
21582;DHT22;10952;50.836;4.348;2023-02-22T18:41:04;11.30;99.90
21582;DHT22;10952;50.836;4.348;2023-02-22T18:43:31;11.30;99.90